Time;durP1;ratioP1;P1;durP2;ratioP2;P2;SDS_P1;SDS_P2;PMS_P1;PMS_P2;Temp;Humidity;BMP_temperature;BMP_pressure;BME280_temperature;BME280_humidity;BME280_pressure;Samples;Min_cycle;Max_cycle;Signal;HPM_P1;HPM_P2
2021/12/15 00:00:22;;;;;;;1.50;1.20;;;6.70;98.00;;;;;;5095351;28;20527;-73
2021/12/15 00:02:51;;;;;;;1.20;1.10;;;6.80;98.00;;;;;;5095307;28;20461;-73
2021/12/15 00:05:22;;;;;;;1.43;1.10;;;6.80;98.00;;;;;;5095292;28;20456;-73
2021/12/15 00:07:51;;;;;;;1.73;1.50;;;6.80;98.00;;;;;;5095265;28;21167;-73
2021/12/15 00:10:22;;;;;;;1.80;1.30;;;6.80;98.00;;;;;;5095150;28;20875;-73
2021/12/15 00:12:49;;;;;;;1.30;1.23;;;6.80;98.00;;;;;;5094015;28;20987;-73
2021/12/15 00:15:21;;;;;;;1.37;1.20;;;6.80;98.00;;;;;;5094912;28;20517;-73
2021/12/15 00:17:48;;;;;;;1.20;1.10;;;6.80;98.00;;;;;;5095049;28;20501;-73
2021/12/15 00:20:17;;;;;;;8.33;1.97;;;6.90;98.00;;;;;;5093899;28;20452;-73
2021/12/15 00:22:44;;;;;;;1.23;1.20;;;6.90;98.00;;;;;;5095047;28;20535;-73
2021/12/15 00:25:13;;;;;;;1.10;1.10;;;6.90;98.00;;;;;;5094934;28;20455;-73
2021/12/15 00:27:40;;;;;;;1.60;1.37;;;6.90;98.00;;;;;;5094101;28;20509;-73
2021/12/15 00:30:10;;;;;;;2.33;1.57;;;6.80;98.00;;;;;;5095052;28;20451;-73
2021/12/15 00:32:40;;;;;;;2.63;1.30;;;6.80;98.00;;;;;;5094733;28;20452;-73
2021/12/15 00:35:09;;;;;;;1.50;1.20;;;6.80;98.00;;;;;;5094936;28;20456;-72
2021/12/15 00:37:37;;;;;;;1.97;1.50;;;6.70;98.00;;;;;;5094326;28;20460;-73
2021/12/15 00:40:07;;;;;;;2.97;2.33;;;6.70;98.00;;;;;;5094636;28;20521;-73
2021/12/15 00:42:34;;;;;;;1.10;1.00;;;6.70;98.00;;;;;;5094684;28;20517;-73
2021/12/15 00:45:01;;;;;;;1.30;1.20;;;6.80;98.00;;;;;;5094428;28;20868;-73
2021/12/15 00:47:28;;;;;;;1.60;1.30;;;6.80;98.00;;;;;;5093958;28;20500;-73
2021/12/15 00:49:57;;;;;;;1.10;1.03;;;6.80;98.00;;;;;;5093421;28;20449;-73
2021/12/15 00:52:24;;;;;;;1.77;1.63;;;6.80;98.00;;;;;;5094235;28;20456;-72
2021/12/15 00:54:51;;;;;;;1.30;1.17;;;6.60;98.00;;;;;;5093007;28;20450;-72
2021/12/15 00:57:18;;;;;;;2.33;1.60;;;6.60;98.00;;;;;;5094144;28;20462;-73
2021/12/15 00:59:46;;;;;;;1.67;1.60;;;6.50;98.00;;;;;;5094500;28;20463;-72
2021/12/15 01:02:13;;;;;;;4.70;1.60;;;6.50;98.00;;;;;;5093558;28;20464;-73
2021/12/15 01:04:41;;;;;;;1.10;1.00;;;6.50;98.00;;;;;;5093436;28;20522;-72
2021/12/15 01:07:12;;;;;;;1.30;1.23;;;6.40;98.00;;;;;;5092064;28;20482;-72
2021/12/15 01:09:48;;;;;;;1.40;1.20;;;6.30;98.00;;;;;;5093991;28;20455;-72
2021/12/15 01:12:39;;;;;;;1.70;1.43;;;6.30;98.00;;;;;;5093903;28;21168;-72
2021/12/15 01:20:46;;;;;;;1.73;1.50;;;6.30;98.00;;;;;;5093865;28;20537;-73
2021/12/15 01:23:17;;;;;;;1.10;1.00;;;6.20;98.00;;;;;;5093917;28;20462;-72
2021/12/15 01:25:48;;;;;;;3.13;1.47;;;6.30;98.00;;;;;;5093562;28;20927;-73
2021/12/15 01:28:15;;;;;;;2.43;1.40;;;6.30;98.00;;;;;;5093646;28;20488;-72
2021/12/15 01:30:45;;;;;;;1.20;1.20;;;6.40;98.00;;;;;;5093527;28;20469;-73
2021/12/15 01:33:13;;;;;;;1.50;1.40;;;6.40;98.00;;;;;;5093668;28;20459;-73
2021/12/15 01:35:43;;;;;;;1.10;1.00;;;6.40;98.00;;;;;;5093467;28;21075;-73
2021/12/15 01:38:10;;;;;;;1.40;1.30;;;6.50;98.00;;;;;;5093595;28;20452;-73
2021/12/15 01:40:43;;;;;;;1.10;1.07;;;6.60;98.00;;;;;;5093215;28;20462;-73
2021/12/15 01:43:16;;;;;;;1.30;1.00;;;6.60;98.00;;;;;;5093517;28;20498;-72
2021/12/15 01:48:31;;;;;;;1.40;1.20;;;6.60;98.00;;;;;;5092225;28;20487;-73
2021/12/15 01:50:58;;;;;;;1.70;1.30;;;6.50;98.00;;;;;;5093551;28;20453;-72
2021/12/15 01:53:25;;;;;;;2.20;1.33;;;6.40;98.00;;;;;;5093713;28;20516;-72
2021/12/15 01:55:54;;;;;;;2.90;1.80;;;6.40;98.00;;;;;;5093167;28;20854;-73
2021/12/15 01:58:24;;;;;;;1.80;1.30;;;6.30;98.00;;;;;;5093446;28;20506;-72
2021/12/15 02:00:57;;;;;;;1.47;1.30;;;6.30;98.00;;;;;;5092840;28;20468;-72
2021/12/15 02:03:27;;;;;;;4.03;1.63;;;6.40;98.00;;;;;;5092775;28;20455;-72
2021/12/15 02:05:58;;;;;;;1.30;1.23;;;6.50;98.00;;;;;;5092952;28;20461;-73
2021/12/15 02:08:26;;;;;;;1.57;1.43;;;6.50;98.00;;;;;;5092850;28;20487;-73
2021/12/15 02:10:56;;;;;;;5.97;2.27;;;6.50;98.00;;;;;;5092576;28;20455;-73
2021/12/15 02:13:23;;;;;;;1.53;1.40;;;6.60;98.00;;;;;;5092829;28;20848;-72
2021/12/15 02:15:54;;;;;;;3.47;1.80;;;6.60;98.00;;;;;;5092582;28;20516;-73
2021/12/15 02:18:26;;;;;;;1.10;1.00;;;6.60;98.00;;;;;;5092599;28;20513;-72
2021/12/15 02:20:58;;;;;;;1.40;1.30;;;6.60;98.00;;;;;;5092341;28;20452;-72
2021/12/15 02:23:34;;;;;;;1.57;1.47;;;6.60;98.00;;;;;;5092625;28;20459;-73
2021/12/15 02:26:07;;;;;;;1.50;1.40;;;6.60;98.00;;;;;;5092421;28;20488;-73
2021/12/15 02:28:34;;;;;;;1.20;1.10;;;6.50;98.00;;;;;;5092176;28;20483;-73
2021/12/15 02:31:10;;;;;;;3.80;1.73;;;6.40;98.00;;;;;;5092384;28;20508;-73
2021/12/15 02:33:49;;;;;;;1.67;1.57;;;6.50;98.00;;;;;;5092294;28;20455;-74
2021/12/15 02:39:08;;;;;;;1.57;1.30;;;6.50;98.00;;;;;;5092388;28;20486;-72
2021/12/15 02:41:36;;;;;;;1.30;1.17;;;6.50;98.00;;;;;;5092377;28;20458;-73
2021/12/15 02:44:05;;;;;;;1.30;1.00;;;6.60;98.00;;;;;;5091062;28;20464;-73
2021/12/15 02:46:35;;;;;;;1.53;1.50;;;6.60;98.00;;;;;;5092112;28;20452;-72
2021/12/15 02:49:05;;;;;;;1.23;1.23;;;6.60;98.00;;;;;;5092050;28;20526;-73
2021/12/15 02:51:35;;;;;;;1.10;1.00;;;6.60;98.00;;;;;;5092156;28;20456;-72
2021/12/15 02:54:03;;;;;;;1.23;1.23;;;6.60;98.00;;;;;;5092264;28;20482;-73
2021/12/15 02:56:30;;;;;;;2.63;1.30;;;6.60;98.00;;;;;;5092109;28;20842;-74
2021/12/15 02:59:02;;;;;;;2.33;1.33;;;6.60;98.00;;;;;;5092238;28;20521;-73
2021/12/15 03:01:38;;;;;;;2.17;1.50;;;6.60;98.00;;;;;;5092068;28;20475;-72
2021/12/15 03:04:27;;;;;;;1.20;1.00;;;6.60;98.00;;;;;;5092104;28;20451;-72
2021/12/15 03:06:59;;;;;;;1.27;1.10;;;6.70;98.00;;;;;;5092036;28;21016;-72
2021/12/15 03:17:37;;;;;;;2.17;1.60;;;6.50;98.00;;;;;;5092560;28;20539;-73
2021/12/15 03:20:07;;;;;;;2.43;1.30;;;6.60;98.00;;;;;;5091839;28;20462;-72
2021/12/15 03:22:36;;;;;;;1.50;1.10;;;6.60;98.00;;;;;;5090522;28;20456;-72
2021/12/15 03:25:06;;;;;;;1.10;1.00;;;6.60;98.00;;;;;;5091929;28;20455;-72
2021/12/15 03:36:05;;;;;;;1.60;1.30;;;6.70;98.00;;;;;;5068880;28;20483;-72
2021/12/15 03:38:35;;;;;;;1.20;1.00;;;6.70;98.00;;;;;;5068906;28;20679;-72
2021/12/15 03:41:05;;;;;;;1.93;1.40;;;6.70;98.00;;;;;;5079928;28;20456;-73
2021/12/15 03:43:33;;;;;;;1.40;1.10;;;6.70;98.00;;;;;;5090153;28;20445;-73
2021/12/15 03:46:06;;;;;;;1.10;1.10;;;6.70;98.00;;;;;;5091602;28;20455;-73
2021/12/15 03:48:36;;;;;;;1.23;1.10;;;6.70;98.00;;;;;;5091068;28;20556;-72
2021/12/15 03:51:05;;;;;;;1.93;1.20;;;6.70;98.00;;;;;;5091538;28;20459;-73
2021/12/15 03:53:34;;;;;;;1.93;1.20;;;6.70;98.00;;;;;;5091597;28;20459;-72
2021/12/15 03:56:03;;;;;;;1.43;1.27;;;6.70;98.00;;;;;;5091596;28;20517;-73
2021/12/15 03:58:30;;;;;;;1.60;1.20;;;6.70;98.00;;;;;;5091440;28;20942;-72
2021/12/15 04:01:00;;;;;;;1.27;1.13;;;6.70;98.00;;;;;;5091471;28;21117;-73
2021/12/15 04:03:29;;;;;;;1.20;1.10;;;6.70;98.00;;;;;;5090473;28;20550;-73
2021/12/15 04:06:00;;;;;;;1.43;1.30;;;6.70;98.00;;;;;;5091402;28;20509;-72
2021/12/15 04:08:29;;;;;;;1.20;1.10;;;6.70;98.00;;;;;;5091446;28;20482;-72
2021/12/15 04:10:59;;;;;;;1.20;1.07;;;6.60;98.00;;;;;;5091303;28;20546;-73
2021/12/15 04:13:26;;;;;;;1.40;1.10;;;6.50;98.00;;;;;;5091493;28;20508;-73
2021/12/15 04:15:56;;;;;;;1.70;1.30;;;6.40;98.00;;;;;;5091338;28;20844;-72
2021/12/15 04:18:24;;;;;;;2.53;1.30;;;6.60;98.00;;;;;;5091459;28;20452;-73
2021/12/15 04:20:54;;;;;;;1.10;1.00;;;6.60;98.00;;;;;;5073502;28;20488;-73
2021/12/15 04:23:22;;;;;;;1.40;1.30;;;6.60;98.00;;;;;;5091393;28;20454;-72
2021/12/15 04:25:55;;;;;;;3.53;1.30;;;6.70;98.00;;;;;;5093061;28;20522;-72
2021/12/15 04:28:31;;;;;;;1.10;1.00;;;6.70;98.00;;;;;;5094943;28;20571;-72
2021/12/15 04:31:01;;;;;;;1.20;1.10;;;6.80;98.00;;;;;;5094830;28;20451;-73
2021/12/15 04:33:32;;;;;;;1.17;1.10;;;6.80;98.00;;;;;;5094813;28;20517;-72
2021/12/15 04:36:01;;;;;;;1.20;1.10;;;6.70;98.00;;;;;;5094831;28;20521;-73
2021/12/15 04:38:31;;;;;;;1.20;1.03;;;6.70;98.00;;;;;;5094700;28;20929;-72
2021/12/15 04:41:00;;;;;;;1.40;1.40;;;6.80;98.00;;;;;;5093653;28;21009;-73
2021/12/15 04:43:33;;;;;;;1.20;1.10;;;6.60;98.00;;;;;;5094865;28;20448;-73
2021/12/15 04:46:01;;;;;;;1.37;1.33;;;6.70;98.00;;;;;;5094445;28;20459;-73
2021/12/15 04:48:28;;;;;;;1.50;1.20;;;6.70;98.00;;;;;;5094516;28;20495;-73
2021/12/15 04:50:56;;;;;;;1.40;1.40;;;6.70;98.00;;;;;;5094522;28;20798;-72
2021/12/15 04:53:23;;;;;;;1.73;1.30;;;6.80;98.00;;;;;;5094234;28;20508;-73
2021/12/15 04:55:51;;;;;;;1.20;1.20;;;6.70;98.00;;;;;;5094434;28;20458;-72
2021/12/15 04:58:18;;;;;;;1.20;1.10;;;6.70;98.00;;;;;;5093879;28;21141;-72
2021/12/15 05:00:53;;;;;;;1.17;1.00;;;6.80;98.00;;;;;;5094060;28;20486;-72
2021/12/15 05:03:21;;;;;;;1.37;1.10;;;6.90;98.00;;;;;;5094084;28;20508;-73
2021/12/15 05:05:48;;;;;;;1.80;1.50;;;6.80;98.00;;;;;;5094143;28;20952;-72
2021/12/15 05:08:15;;;;;;;3.83;2.53;;;6.80;98.00;;;;;;5093865;28;20898;-73
2021/12/15 05:10:42;;;;;;;1.20;1.10;;;6.70;98.00;;;;;;5093880;28;21005;-72
2021/12/15 05:13:10;;;;;;;1.30;1.10;;;6.80;98.00;;;;;;5093967;28;20460;-73
2021/12/15 05:15:37;;;;;;;1.27;1.23;;;6.80;98.00;;;;;;5093972;28;21046;-73
2021/12/15 05:18:10;;;;;;;1.90;1.40;;;6.80;98.00;;;;;;5093493;28;20508;-73
2021/12/15 05:20:40;;;;;;;1.20;1.00;;;6.70;98.00;;;;;;5093410;28;20455;-72
2021/12/15 05:23:07;;;;;;;1.23;1.17;;;6.60;98.00;;;;;;5093954;28;20459;-73
2021/12/15 05:25:35;;;;;;;1.10;1.00;;;6.50;98.00;;;;;;5093834;28;20466;-72
2021/12/15 05:28:02;;;;;;;1.20;1.10;;;6.50;98.00;;;;;;5092408;28;20485;-73
2021/12/15 05:30:30;;;;;;;1.20;1.07;;;6.50;98.00;;;;;;5093519;28;20883;-72
2021/12/15 05:32:57;;;;;;;1.10;1.10;;;6.50;98.00;;;;;;5093784;28;20459;-72
2021/12/15 05:35:25;;;;;;;1.10;1.10;;;6.40;98.00;;;;;;5093068;28;20459;-72
2021/12/15 05:37:55;;;;;;;1.40;1.10;;;6.40;98.00;;;;;;5093509;28;20498;-73
2021/12/15 05:40:23;;;;;;;1.10;1.00;;;6.40;98.00;;;;;;5093487;28;20463;-72
2021/12/15 05:42:50;;;;;;;1.10;1.10;;;6.40;98.00;;;;;;5093398;28;20814;-73
2021/12/15 05:45:17;;;;;;;1.40;1.40;;;6.40;98.00;;;;;;5093077;28;20514;-73
2021/12/15 05:47:45;;;;;;;1.13;1.07;;;6.40;98.00;;;;;;5093140;28;20909;-72
2021/12/15 05:50:13;;;;;;;1.40;1.10;;;6.40;98.00;;;;;;5093253;28;20757;-72
2021/12/15 05:52:43;;;;;;;2.13;1.50;;;6.50;98.00;;;;;;5093383;28;20504;-72
2021/12/15 05:55:13;;;;;;;1.20;1.20;;;6.50;98.00;;;;;;5093073;28;20460;-73
2021/12/15 05:57:41;;;;;;;1.10;1.00;;;6.50;98.00;;;;;;5093312;28;20947;-73
2021/12/15 06:00:12;;;;;;;1.23;1.10;;;6.60;98.00;;;;;;5093029;28;20857;-73
2021/12/15 06:02:40;;;;;;;2.17;1.40;;;6.60;98.00;;;;;;5093364;28;20851;-72
2021/12/15 06:05:08;;;;;;;1.20;1.10;;;6.60;98.00;;;;;;5093090;28;20521;-73
2021/12/15 06:07:36;;;;;;;1.13;1.00;;;6.60;98.00;;;;;;5093304;28;20873;-73
2021/12/15 06:10:05;;;;;;;1.20;1.10;;;6.70;98.00;;;;;;5092758;28;20464;-72
2021/12/15 06:12:32;;;;;;;1.10;1.00;;;6.70;98.00;;;;;;5093041;28;20514;-73
2021/12/15 06:14:59;;;;;;;1.10;1.00;;;6.70;98.00;;;;;;5092257;28;20465;-73
2021/12/15 06:17:26;;;;;;;2.60;1.30;;;6.60;98.00;;;;;;5092147;28;20458;-72
2021/12/15 06:19:54;;;;;;;1.10;1.00;;;6.60;98.00;;;;;;5091985;28;20518;-72
2021/12/15 06:22:26;;;;;;;1.77;1.67;;;6.60;98.00;;;;;;5092644;28;20451;-73
2021/12/15 06:24:54;;;;;;;1.97;1.43;;;6.60;98.00;;;;;;5092469;28;20470;-73
2021/12/15 06:27:29;;;;;;;3.53;1.73;;;6.60;98.00;;;;;;5092394;28;20459;-73
2021/12/15 06:29:56;;;;;;;1.30;1.30;;;6.60;98.00;;;;;;5092619;28;20517;-73
2021/12/15 06:32:23;;;;;;;3.03;1.27;;;6.60;98.00;;;;;;5092540;28;20466;-73
2021/12/15 06:34:50;;;;;;;1.40;1.10;;;6.60;98.00;;;;;;5092353;28;20458;-73
2021/12/15 06:37:17;;;;;;;1.20;1.20;;;6.60;98.00;;;;;;5092348;28;20456;-73
2021/12/15 06:39:45;;;;;;;1.20;1.10;;;6.60;98.00;;;;;;5092308;28;20515;-73
2021/12/15 06:42:12;;;;;;;1.30;1.10;;;6.50;98.00;;;;;;5091856;28;21011;-72
2021/12/15 06:44:41;;;;;;;8.17;1.30;;;6.50;98.00;;;;;;5092150;28;20457;-73
2021/12/15 06:47:36;;;;;;;1.10;1.00;;;6.50;98.00;;;;;;5091856;28;20495;-72
2021/12/15 06:58:15;;;;;;;1.23;1.17;;;6.40;98.00;;;;;;5091933;28;21047;-73
2021/12/15 07:00:48;;;;;;;1.20;1.10;;;6.50;98.00;;;;;;5091996;28;20455;-72
2021/12/15 07:03:17;;;;;;;2.27;1.63;;;6.60;98.00;;;;;;5091961;28;20451;-73
2021/12/15 07:05:44;;;;;;;2.50;1.60;;;6.60;98.00;;;;;;5091929;28;20982;-72
2021/12/15 07:08:12;;;;;;;1.20;1.17;;;6.60;98.00;;;;;;5091904;28;20477;-73
2021/12/15 07:10:42;;;;;;;1.80;1.10;;;6.60;98.00;;;;;;5091879;28;21011;-73
2021/12/15 07:13:09;;;;;;;1.50;1.23;;;6.60;98.00;;;;;;5091967;28;20500;-73
2021/12/15 07:15:37;;;;;;;2.80;2.60;;;6.50;98.00;;;;;;5091946;28;20520;-69
2021/12/15 07:18:11;;;;;;;1.10;1.10;;;6.40;98.00;;;;;;5092076;28;20452;-73
2021/12/15 07:20:43;;;;;;;2.10;1.47;;;6.50;98.00;;;;;;5091776;28;20587;-73
2021/12/15 07:23:14;;;;;;;1.40;1.10;;;6.50;98.00;;;;;;5091296;28;20463;-72
2021/12/15 07:25:43;;;;;;;1.73;1.20;;;6.60;98.00;;;;;;5091366;28;20465;-73
2021/12/15 07:28:11;;;;;;;1.20;1.03;;;6.70;98.00;;;;;;5092204;28;21001;-72
2021/12/15 07:30:39;;;;;;;1.40;1.20;;;6.60;98.00;;;;;;5092126;28;20456;-73
2021/12/15 07:33:12;;;;;;;1.33;1.30;;;6.60;98.00;;;;;;5092214;28;20677;-73
2021/12/15 07:35:41;;;;;;;1.10;1.00;;;6.70;98.00;;;;;;5091593;28;20485;-74
2021/12/15 07:38:09;;;;;;;1.20;1.00;;;6.60;98.00;;;;;;5091853;28;20460;-73
2021/12/15 07:40:40;;;;;;;1.70;1.60;;;6.60;98.00;;;;;;5091626;28;20798;-72
2021/12/15 07:43:13;;;;;;;6.93;1.47;;;6.60;98.00;;;;;;5091527;28;20460;-71
2021/12/15 07:45:44;;;;;;;1.77;1.27;;;6.60;98.00;;;;;;5091599;28;20532;-73
2021/12/15 07:48:16;;;;;;;1.20;1.10;;;6.70;98.00;;;;;;5091229;28;20520;-73
2021/12/15 07:50:46;;;;;;;2.13;1.67;;;6.70;98.00;;;;;;5091507;28;20549;-74
2021/12/15 07:53:14;;;;;;;1.30;1.20;;;6.80;98.00;;;;;;5091728;28;20464;-72
2021/12/15 07:55:42;;;;;;;1.10;1.00;;;6.80;98.00;;;;;;5091415;28;20826;-72
2021/12/15 07:58:11;;;;;;;1.20;1.10;;;6.70;98.00;;;;;;5091399;28;20456;-72
2021/12/15 08:00:41;;;;;;;1.50;1.20;;;6.70;98.00;;;;;;5094842;28;20458;-73
2021/12/15 08:03:08;;;;;;;3.73;1.43;;;6.70;98.00;;;;;;5094248;28;20463;-73
2021/12/15 08:05:39;;;;;;;1.10;0.90;;;6.70;98.00;;;;;;5095066;28;20448;-72
2021/12/15 08:08:07;;;;;;;1.10;1.00;;;6.70;98.00;;;;;;5095149;28;21004;-73
2021/12/15 08:10:35;;;;;;;1.93;1.10;;;6.80;98.00;;;;;;5094993;28;20868;-73
2021/12/15 08:13:03;;;;;;;2.13;1.27;;;6.70;98.00;;;;;;5095159;28;20486;-73
2021/12/15 08:15:30;;;;;;;1.20;1.00;;;6.80;98.00;;;;;;5095019;28;20582;-75
2021/12/15 08:17:57;;;;;;;6.10;1.53;;;6.80;98.00;;;;;;5093883;28;20527;-75
2021/12/15 08:20:28;;;;;;;4.13;1.20;;;6.70;98.00;;;;;;5077058;28;20454;-74
2021/12/15 08:22:57;;;;;;;1.20;1.00;;;6.70;98.00;;;;;;5095303;28;20938;-73
2021/12/15 08:25:25;;;;;;;1.70;1.23;;;6.80;98.00;;;;;;5093605;28;20509;-75
2021/12/15 08:27:53;;;;;;;1.20;1.00;;;6.80;98.00;;;;;;5094888;28;20506;-73
2021/12/15 08:30:23;;;;;;;1.30;1.10;;;6.90;98.00;;;;;;5094932;28;20536;-74
2021/12/15 08:32:52;;;;;;;1.97;1.33;;;6.80;98.00;;;;;;5094904;28;20474;-74
2021/12/15 08:35:22;;;;;;;2.00;1.40;;;6.90;98.00;;;;;;5094623;28;20493;-74
2021/12/15 08:37:49;;;;;;;1.30;1.10;;;6.80;98.00;;;;;;5094810;28;20462;-72
2021/12/15 08:40:20;;;;;;;1.20;1.00;;;6.80;98.00;;;;;;5094656;28;20451;-74
2021/12/15 08:42:48;;;;;;;2.70;1.93;;;6.90;98.00;;;;;;5094700;28;20529;-73
2021/12/15 08:45:17;;;;;;;1.10;1.00;;;6.90;98.00;;;;;;5094691;28;20463;-74
2021/12/15 08:47:44;;;;;;;1.10;1.00;;;6.90;98.00;;;;;;5094784;28;20490;-73
2021/12/15 08:50:17;;;;;;;1.10;1.00;;;6.90;98.00;;;;;;5094517;28;20830;-73
2021/12/15 08:52:45;;;;;;;1.57;1.10;;;6.90;98.00;;;;;;5094538;28;20516;-73
2021/12/15 08:55:13;;;;;;;1.20;1.10;;;6.90;98.00;;;;;;5094565;28;20503;-72
2021/12/15 08:57:48;;;;;;;1.20;1.10;;;7.10;98.00;;;;;;5094616;28;20544;-72
2021/12/15 09:00:17;;;;;;;1.60;1.40;;;7.10;98.00;;;;;;5094079;28;20959;-72
2021/12/15 09:02:44;;;;;;;1.10;1.00;;;7.20;98.00;;;;;;5093244;28;20540;-72
2021/12/15 09:05:12;;;;;;;1.70;1.30;;;7.30;98.00;;;;;;5094215;28;20459;-71
2021/12/15 09:07:43;;;;;;;1.20;1.00;;;7.40;98.00;;;;;;5094143;28;20452;-72
2021/12/15 09:10:12;;;;;;;1.10;0.90;;;7.40;98.00;;;;;;5093567;28;20495;-70
2021/12/15 09:12:40;;;;;;;1.40;1.10;;;7.40;98.00;;;;;;5089060;28;20460;-70
2021/12/15 09:15:09;;;;;;;1.20;1.07;;;7.40;98.00;;;;;;5073197;28;20456;-70
2021/12/15 09:17:37;;;;;;;1.20;1.00;;;7.30;98.00;;;;;;5090860;28;20965;-70
2021/12/15 09:20:06;;;;;;;1.20;1.00;;;7.20;98.00;;;;;;5091232;28;20486;-72
2021/12/15 09:22:33;;;;;;;1.30;1.20;;;7.20;98.00;;;;;;5091090;28;20456;-72
2021/12/15 09:25:00;;;;;;;1.20;1.00;;;7.20;98.00;;;;;;5091018;28;20464;-70
2021/12/15 09:27:28;;;;;;;1.20;1.00;;;7.30;98.00;;;;;;5090243;28;20454;-70
2021/12/15 09:29:57;;;;;;;2.57;1.30;;;7.40;98.00;;;;;;5090501;28;20496;-72
2021/12/15 09:32:24;;;;;;;1.30;1.00;;;7.20;98.00;;;;;;5090657;28;20969;-70
2021/12/15 09:34:53;;;;;;;1.77;1.40;;;7.20;98.00;;;;;;5091906;28;20508;-72
2021/12/15 09:37:21;;;;;;;2.27;1.10;;;7.20;98.00;;;;;;5093230;28;20456;-71
2021/12/15 09:39:49;;;;;;;1.93;1.30;;;7.20;98.00;;;;;;5092208;28;20465;-72
2021/12/15 09:42:23;;;;;;;2.07;1.63;;;7.20;98.00;;;;;;5093258;28;20467;-71
2021/12/15 09:44:54;;;;;;;1.20;1.00;;;7.20;98.00;;;;;;5093446;28;20459;-72
2021/12/15 09:47:40;;;;;;;1.20;1.10;;;7.20;98.00;;;;;;5091871;28;20452;-73
2021/12/15 10:04:18;;;;;;;1.20;1.10;;;7.40;98.00;;;;;;5091591;28;20488;-71
2021/12/15 10:07:15;;;;;;;1.30;1.10;;;7.50;98.00;;;;;;5092189;28;20485;-71
2021/12/15 10:17:21;;;;;;;2.17;1.43;;;7.60;98.00;;;;;;5092441;28;20837;-71
2021/12/15 10:18:25;;;;;;;1.17;1.00;;;7.60;98.00;;;;;;5092115;28;21048;-72
2021/12/15 10:20:54;;;;;;;1.20;0.90;;;7.60;98.00;;;;;;5092140;28;20968;-72
2021/12/15 10:23:24;;;;;;;1.40;1.13;;;7.70;98.00;;;;;;5092145;28;20798;-72
2021/12/15 10:25:54;;;;;;;1.40;1.17;;;7.70;98.00;;;;;;5092174;28;20504;-71
2021/12/15 10:28:24;;;;;;;1.20;1.00;;;7.60;98.00;;;;;;5092053;28;20480;-71
2021/12/15 10:30:54;;;;;;;1.20;1.00;;;7.60;98.00;;;;;;5090585;28;20506;-72
2021/12/15 10:33:24;;;;;;;1.20;1.00;;;7.60;98.00;;;;;;5091823;28;20461;-71
2021/12/15 10:35:59;;;;;;;1.10;0.90;;;7.50;98.00;;;;;;5091539;28;20455;-72
2021/12/15 10:38:29;;;;;;;1.80;1.50;;;7.50;98.00;;;;;;5091704;28;20516;-71
2021/12/15 10:41:00;;;;;;;1.20;1.10;;;7.60;98.00;;;;;;5091634;28;20471;-72
2021/12/15 10:43:32;;;;;;;1.20;1.00;;;7.60;98.00;;;;;;5091537;28;20941;-71
2021/12/15 10:46:03;;;;;;;1.20;1.00;;;7.50;98.00;;;;;;5091421;28;20458;-72
2021/12/15 10:48:38;;;;;;;1.20;1.00;;;7.60;98.00;;;;;;5091584;28;20516;-72
2021/12/15 10:51:36;;;;;;;1.20;1.07;;;7.60;98.00;;;;;;5091586;28;20485;-71
2021/12/15 10:54:08;;;;;;;1.60;1.20;;;7.60;98.00;;;;;;5057163;28;20451;-72
2021/12/15 10:56:37;;;;;;;1.20;0.97;;;7.70;98.00;;;;;;5091862;28;20459;-71
2021/12/15 10:59:08;;;;;;;1.20;1.10;;;7.70;98.00;;;;;;5092248;28;20524;-72
2021/12/15 11:01:49;;;;;;;1.20;1.10;;;7.60;98.00;;;;;;5092036;28;20861;-71
2021/12/15 11:04:29;;;;;;;2.47;1.43;;;7.60;98.00;;;;;;5092027;28;20949;-71
2021/12/15 11:07:21;;;;;;;1.20;1.00;;;7.60;98.00;;;;;;5091878;28;20459;-72
2021/12/15 11:09:52;;;;;;;1.87;1.20;;;7.60;98.00;;;;;;5088017;28;20492;-72
2021/12/15 11:12:23;;;;;;;1.20;1.00;;;7.60;98.00;;;;;;5091804;28;20457;-71
2021/12/15 11:14:54;;;;;;;1.63;1.20;;;7.50;98.00;;;;;;5090714;28;20950;-71
2021/12/15 11:17:23;;;;;;;1.20;0.97;;;7.50;98.00;;;;;;5091869;28;20508;-72
2021/12/15 11:20:00;;;;;;;1.80;1.50;;;7.50;98.00;;;;;;5092030;28;20877;-71
2021/12/15 11:22:45;;;;;;;1.20;1.00;;;7.50;98.00;;;;;;5091291;28;20456;-71
2021/12/15 11:25:20;;;;;;;1.20;1.10;;;7.50;98.00;;;;;;5091832;28;20479;-72
2021/12/15 11:27:50;;;;;;;1.20;1.10;;;7.50;98.00;;;;;;5091742;28;20458;-71
2021/12/15 11:30:25;;;;;;;1.20;1.00;;;7.40;98.00;;;;;;5091862;28;20991;-71
2021/12/15 11:32:54;;;;;;;1.20;1.00;;;7.40;98.00;;;;;;5091880;28;20853;-70
2021/12/15 11:35:26;;;;;;;1.20;1.00;;;7.50;98.00;;;;;;5095252;28;20520;-71
2021/12/15 11:37:59;;;;;;;3.50;1.20;;;7.50;98.00;;;;;;5096179;28;20447;-71
2021/12/15 11:40:30;;;;;;;1.20;1.10;;;7.40;98.00;;;;;;5099907;28;20463;-71
2021/12/15 11:42:58;;;;;;;1.20;0.90;;;7.30;98.00;;;;;;5094328;28;20455;-71
2021/12/15 11:45:27;;;;;;;1.20;1.00;;;7.40;98.00;;;;;;5095854;28;21005;-71
2021/12/15 11:48:14;;;;;;;1.20;1.00;;;7.30;98.00;;;;;;5096000;28;20853;-71
2021/12/15 11:50:45;;;;;;;1.20;1.20;;;7.40;98.00;;;;;;5095344;28;20482;-70
2021/12/15 11:53:31;;;;;;;1.20;1.00;;;7.50;98.00;;;;;;5094108;28;20842;-71
2021/12/15 11:56:17;;;;;;;1.20;1.10;;;7.50;98.00;;;;;;5095196;28;20458;-71
2021/12/15 11:58:46;;;;;;;1.57;1.10;;;7.50;98.00;;;;;;5094315;28;20461;-71
2021/12/15 12:01:42;;;;;;;1.20;1.00;;;7.50;98.00;;;;;;5095130;28;20508;-71
2021/12/15 12:04:18;;;;;;;1.20;1.10;;;7.50;98.00;;;;;;5095445;28;20598;-71
2021/12/15 12:06:48;;;;;;;1.20;0.90;;;7.40;98.00;;;;;;5095164;28;20485;-71
2021/12/15 12:09:19;;;;;;;1.20;1.20;;;7.30;98.00;;;;;;5094776;28;20496;-71
2021/12/15 12:11:50;;;;;;;1.40;1.20;;;7.20;98.00;;;;;;5094960;28;20487;-70
2021/12/15 12:14:37;;;;;;;1.20;1.20;;;7.20;98.00;;;;;;5096302;28;20536;-71
2021/12/15 12:17:12;;;;;;;3.80;1.23;;;7.30;98.00;;;;;;5095101;28;20454;-71
2021/12/15 12:19:46;;;;;;;1.20;1.07;;;7.30;98.00;;;;;;5095111;28;20449;-72
2021/12/15 12:22:16;;;;;;;1.20;1.17;;;7.20;98.00;;;;;;5094877;28;20528;-70
2021/12/15 12:24:48;;;;;;;1.20;1.10;;;7.30;98.00;;;;;;5095032;28;20450;-72
2021/12/15 12:27:16;;;;;;;1.20;1.17;;;7.30;98.00;;;;;;5094744;28;20480;-72
2021/12/15 12:29:44;;;;;;;1.20;1.00;;;7.30;98.00;;;;;;5094601;28;20476;-72
2021/12/15 12:32:13;;;;;;;1.20;0.90;;;7.30;98.00;;;;;;5094817;28;20840;-72
2021/12/15 12:34:42;;;;;;;1.20;1.00;;;7.30;98.00;;;;;;5094776;28;20462;-71
2021/12/15 12:37:12;;;;;;;2.53;1.27;;;7.40;98.00;;;;;;5094702;28;20518;-71
2021/12/15 12:39:40;;;;;;;1.30;1.10;;;7.40;98.00;;;;;;5094637;28;20496;-71
2021/12/15 12:42:09;;;;;;;1.20;1.00;;;7.30;98.00;;;;;;5094756;28;20454;-67
2021/12/15 12:44:39;;;;;;;1.20;1.00;;;7.20;98.00;;;;;;5094607;28;20482;-72
2021/12/15 12:47:20;;;;;;;1.10;1.00;;;7.20;98.00;;;;;;5093497;28;20462;-72
2021/12/15 13:01:20;;;;;;;1.20;1.00;;;7.50;98.00;;;;;;5094603;28;20434;-74
2021/12/15 13:03:52;;;;;;;1.20;1.10;;;7.50;98.00;;;;;;5094605;28;20469;-74
2021/12/15 13:06:22;;;;;;;1.20;1.00;;;7.50;98.00;;;;;;5093934;28;20462;-71
2021/12/15 13:08:54;;;;;;;1.67;1.50;;;7.40;98.00;;;;;;5094492;28;20501;-72
2021/12/15 13:11:34;;;;;;;1.70;1.50;;;7.50;98.00;;;;;;5093842;28;20491;-72
2021/12/15 13:14:06;;;;;;;1.10;0.90;;;7.50;98.00;;;;;;5094097;28;20547;-72
2021/12/15 13:16:42;;;;;;;1.40;1.10;;;7.50;98.00;;;;;;5093670;28;21028;-73
2021/12/15 13:19:16;;;;;;;1.40;1.30;;;7.30;98.00;;;;;;5093837;28;20497;-72
2021/12/15 13:21:49;;;;;;;1.30;1.10;;;7.20;98.00;;;;;;5093922;28;20445;-73
2021/12/15 13:30:46;;;;;;;1.53;1.30;;;7.10;98.00;;;;;;5093705;28;20570;-73
2021/12/15 13:33:17;;;;;;;1.20;1.00;;;7.10;98.00;;;;;;5093774;28;20457;-73
2021/12/15 13:35:48;;;;;;;1.10;1.00;;;7.00;98.00;;;;;;5093325;28;20464;-72
2021/12/15 13:38:21;;;;;;;1.20;1.00;;;7.10;98.00;;;;;;5093636;28;20493;-73
2021/12/15 13:41:19;;;;;;;1.20;1.00;;;7.00;98.00;;;;;;5093561;28;20459;-72
2021/12/15 13:44:17;;;;;;;1.97;1.20;;;7.00;98.00;;;;;;5092102;28;20931;-73
2021/12/15 13:46:52;;;;;;;1.43;1.20;;;7.00;98.00;;;;;;5092772;28;20464;-73
2021/12/15 13:49:32;;;;;;;1.40;1.00;;;7.10;98.00;;;;;;5093417;28;21014;-72
2021/12/15 13:52:04;;;;;;;1.10;1.00;;;7.10;98.00;;;;;;5093376;28;20491;-73
2021/12/15 13:54:53;;;;;;;1.20;1.20;;;7.00;98.00;;;;;;5093259;28;20490;-73
2021/12/15 13:57:25;;;;;;;1.10;0.90;;;7.00;98.00;;;;;;5093159;28;20459;-73
2021/12/15 14:00:02;;;;;;;1.40;1.10;;;7.00;98.00;;;;;;5092901;28;20865;-73
2021/12/15 14:02:33;;;;;;;1.20;1.00;;;6.90;98.00;;;;;;5092987;28;20497;-73
2021/12/15 14:05:03;;;;;;;1.20;1.00;;;7.00;98.00;;;;;;5092931;28;20479;-73
2021/12/15 14:07:36;;;;;;;1.20;1.00;;;7.00;98.00;;;;;;5093007;28;20913;-73
2021/12/15 14:10:55;;;;;;;1.20;1.10;;;7.00;98.00;;;;;;5092946;28;20465;-73
2021/12/15 14:13:42;;;;;;;1.10;1.00;;;7.10;98.00;;;;;;5092907;28;20454;-73
2021/12/15 14:16:10;;;;;;;1.93;1.20;;;7.10;98.00;;;;;;5092765;28;20467;-72
2021/12/15 14:18:43;;;;;;;1.20;1.00;;;7.00;98.00;;;;;;5092915;28;20871;-73
2021/12/15 14:21:13;;;;;;;1.20;1.00;;;7.00;98.00;;;;;;5092297;28;20456;-73
2021/12/15 14:23:43;;;;;;;1.50;1.20;;;7.10;98.00;;;;;;5092757;28;20460;-72
2021/12/15 14:26:13;;;;;;;1.30;1.17;;;7.20;98.00;;;;;;5092584;28;20520;-73
2021/12/15 14:28:45;;;;;;;2.20;1.23;;;7.40;98.00;;;;;;5092772;28;20505;-72
2021/12/15 14:31:15;;;;;;;1.20;1.00;;;7.20;98.00;;;;;;5091404;28;20496;-73